sensor_id;sensor_type;location;lat;lon;timestamp;P1;durP1;ratioP1;P2;durP2;ratioP2
14681;SDS011;7429;52.498;13.480;2024-02-23T00:01:16;1.80;;;1.50;;
14681;SDS011;7429;52.498;13.480;2024-02-23T00:04:19;1.70;;;1.60;;
14681;SDS011;7429;52.498;13.480;2024-02-23T00:07:23;1.67;;;1.57;;
14681;SDS011;7429;52.498;13.480;2024-02-23T00:10:26;1.40;;;1.40;;
14681;SDS011;7429;52.498;13.480;2024-02-23T00:13:29;1.47;;;1.40;;
14681;SDS011;7429;52.498;13.480;2024-02-23T00:16:38;1.70;;;1.60;;
14681;SDS011;7429;52.498;13.480;2024-02-23T00:19:44;1.50;;;1.40;;
14681;SDS011;7429;52.498;13.480;2024-02-23T00:22:49;1.50;;;1.40;;
14681;SDS011;7429;52.498;13.480;2024-02-23T00:25:52;1.43;;;1.43;;
14681;SDS011;7429;52.498;13.480;2024-02-23T00:28:55;1.50;;;1.40;;
14681;SDS011;7429;52.498;13.480;2024-02-23T00:32:00;2.23;;;1.40;;
14681;SDS011;7429;52.498;13.480;2024-02-23T00:35:03;1.40;;;1.40;;
14681;SDS011;7429;52.498;13.480;2024-02-23T00:38:08;3.67;;;2.07;;
14681;SDS011;7429;52.498;13.480;2024-02-23T00:41:11;2.20;;;2.10;;
14681;SDS011;7429;52.498;13.480;2024-02-23T00:44:14;1.80;;;1.70;;
14681;SDS011;7429;52.498;13.480;2024-02-23T00:47:19;1.63;;;1.53;;
14681;SDS011;7429;52.498;13.480;2024-02-23T00:50:22;2.07;;;1.97;;
14681;SDS011;7429;52.498;13.480;2024-02-23T00:53:27;2.20;;;2.00;;
14681;SDS011;7429;52.498;13.480;2024-02-23T00:56:31;2.00;;;1.77;;
14681;SDS011;7429;52.498;13.480;2024-02-23T00:59:50;2.03;;;1.93;;
14681;SDS011;7429;52.498;13.480;2024-02-23T01:02:55;2.27;;;2.17;;
14681;SDS011;7429;52.498;13.480;2024-02-23T01:06:00;2.03;;;1.83;;
14681;SDS011;7429;52.498;13.480;2024-02-23T01:09:04;2.40;;;2.30;;
14681;SDS011;7429;52.498;13.480;2024-02-23T01:12:08;2.60;;;2.50;;
14681;SDS011;7429;52.498;13.480;2024-02-23T01:15:11;2.27;;;2.17;;
14681;SDS011;7429;52.498;13.480;2024-02-23T01:18:17;2.50;;;2.30;;
14681;SDS011;7429;52.498;13.480;2024-02-23T01:21:20;2.63;;;2.53;;
14681;SDS011;7429;52.498;13.480;2024-02-23T01:24:23;2.40;;;2.30;;
14681;SDS011;7429;52.498;13.480;2024-02-23T01:27:30;2.47;;;2.33;;
14681;SDS011;7429;52.498;13.480;2024-02-23T01:30:33;2.20;;;2.10;;
14681;SDS011;7429;52.498;13.480;2024-02-23T01:33:38;2.13;;;1.93;;
14681;SDS011;7429;52.498;13.480;2024-02-23T01:36:42;1.83;;;1.73;;
14681;SDS011;7429;52.498;13.480;2024-02-23T01:39:45;2.37;;;2.27;;
14681;SDS011;7429;52.498;13.480;2024-02-23T01:42:48;2.60;;;2.40;;
14681;SDS011;7429;52.498;13.480;2024-02-23T01:45:52;2.13;;;2.03;;
14681;SDS011;7429;52.498;13.480;2024-02-23T01:49:00;2.47;;;2.37;;
14681;SDS011;7429;52.498;13.480;2024-02-23T01:52:03;1.80;;;1.70;;
14681;SDS011;7429;52.498;13.480;2024-02-23T01:55:08;2.40;;;2.20;;
14681;SDS011;7429;52.498;13.480;2024-02-23T01:58:11;2.20;;;2.10;;
14681;SDS011;7429;52.498;13.480;2024-02-23T02:01:14;2.17;;;2.07;;
14681;SDS011;7429;52.498;13.480;2024-02-23T02:04:19;3.43;;;3.20;;
14681;SDS011;7429;52.498;13.480;2024-02-23T02:07:23;2.17;;;2.07;;
14681;SDS011;7429;52.498;13.480;2024-02-23T02:10:26;2.30;;;2.07;;
14681;SDS011;7429;52.498;13.480;2024-02-23T02:13:30;2.27;;;2.17;;
14681;SDS011;7429;52.498;13.480;2024-02-23T02:16:33;2.57;;;2.47;;
14681;SDS011;7429;52.498;13.480;2024-02-23T02:19:38;2.07;;;2.00;;
14681;SDS011;7429;52.498;13.480;2024-02-23T02:22:48;2.60;;;2.50;;
14681;SDS011;7429;52.498;13.480;2024-02-23T02:25:52;2.53;;;2.27;;
14681;SDS011;7429;52.498;13.480;2024-02-23T02:28:56;2.50;;;2.40;;
14681;SDS011;7429;52.498;13.480;2024-02-23T02:31:59;2.53;;;1.90;;
14681;SDS011;7429;52.498;13.480;2024-02-23T02:35:04;2.43;;;2.23;;
14681;SDS011;7429;52.498;13.480;2024-02-23T02:38:07;3.10;;;2.50;;
14681;SDS011;7429;52.498;13.480;2024-02-23T02:41:11;1.90;;;1.90;;
14681;SDS011;7429;52.498;13.480;2024-02-23T02:44:14;2.40;;;2.30;;
14681;SDS011;7429;52.498;13.480;2024-02-23T02:47:18;1.83;;;1.73;;
14681;SDS011;7429;52.498;13.480;2024-02-23T02:50:22;2.23;;;2.13;;
14681;SDS011;7429;52.498;13.480;2024-02-23T02:53:26;2.20;;;2.00;;
14681;SDS011;7429;52.498;13.480;2024-02-23T02:56:31;1.50;;;1.47;;
14681;SDS011;7429;52.498;13.480;2024-02-23T02:59:34;3.03;;;2.27;;
14681;SDS011;7429;52.498;13.480;2024-02-23T03:02:38;2.60;;;2.40;;
14681;SDS011;7429;52.498;13.480;2024-02-23T03:05:42;2.13;;;2.03;;
14681;SDS011;7429;52.498;13.480;2024-02-23T03:08:46;2.10;;;2.00;;
14681;SDS011;7429;52.498;13.480;2024-02-23T03:11:49;5.13;;;2.77;;
14681;SDS011;7429;52.498;13.480;2024-02-23T03:14:53;1.80;;;1.70;;
14681;SDS011;7429;52.498;13.480;2024-02-23T03:17:57;2.10;;;1.63;;
14681;SDS011;7429;52.498;13.480;2024-02-23T03:21:04;4.40;;;2.07;;
14681;SDS011;7429;52.498;13.480;2024-02-23T03:24:08;2.53;;;2.33;;
14681;SDS011;7429;52.498;13.480;2024-02-23T03:27:11;2.20;;;2.10;;
14681;SDS011;7429;52.498;13.480;2024-02-23T03:30:15;1.80;;;1.70;;
14681;SDS011;7429;52.498;13.480;2024-02-23T03:33:18;2.00;;;1.90;;
14681;SDS011;7429;52.498;13.480;2024-02-23T03:36:25;2.03;;;1.87;;
14681;SDS011;7429;52.498;13.480;2024-02-23T03:39:29;2.03;;;1.90;;
14681;SDS011;7429;52.498;13.480;2024-02-23T03:42:34;2.80;;;2.30;;
14681;SDS011;7429;52.498;13.480;2024-02-23T03:45:37;2.07;;;1.97;;
14681;SDS011;7429;52.498;13.480;2024-02-23T03:48:40;1.87;;;1.77;;
14681;SDS011;7429;52.498;13.480;2024-02-23T03:57:11;2.10;;;2.00;;
14681;SDS011;7429;52.498;13.480;2024-02-23T04:00:14;2.17;;;2.10;;
14681;SDS011;7429;52.498;13.480;2024-02-23T04:03:18;2.83;;;2.07;;
14681;SDS011;7429;52.498;13.480;2024-02-23T04:06:22;2.63;;;2.13;;
14681;SDS011;7429;52.498;13.480;2024-02-23T04:09:25;1.70;;;1.60;;
14681;SDS011;7429;52.498;13.480;2024-02-23T04:12:30;2.30;;;2.20;;
14681;SDS011;7429;52.498;13.480;2024-02-23T04:15:33;2.30;;;2.20;;
14681;SDS011;7429;52.498;13.480;2024-02-23T04:18:37;2.30;;;2.20;;
14681;SDS011;7429;52.498;13.480;2024-02-23T04:21:40;4.03;;;2.17;;
14681;SDS011;7429;52.498;13.480;2024-02-23T04:24:44;2.23;;;2.13;;
14681;SDS011;7429;52.498;13.480;2024-02-23T04:27:48;4.30;;;2.40;;
14681;SDS011;7429;52.498;13.480;2024-02-23T04:30:52;2.00;;;1.90;;
14681;SDS011;7429;52.498;13.480;2024-02-23T04:33:55;3.33;;;2.33;;
14681;SDS011;7429;52.498;13.480;2024-02-23T04:36:58;2.10;;;2.00;;
14681;SDS011;7429;52.498;13.480;2024-02-23T04:40:01;3.70;;;2.37;;
14681;SDS011;7429;52.498;13.480;2024-02-23T04:43:08;4.13;;;2.27;;
14681;SDS011;7429;52.498;13.480;2024-02-23T04:46:12;2.30;;;2.20;;
14681;SDS011;7429;52.498;13.480;2024-02-23T04:49:15;2.10;;;2.00;;
14681;SDS011;7429;52.498;13.480;2024-02-23T04:52:19;2.13;;;2.00;;
14681;SDS011;7429;52.498;13.480;2024-02-23T04:55:22;4.17;;;2.40;;
14681;SDS011;7429;52.498;13.480;2024-02-23T04:58:26;2.37;;;2.10;;
14681;SDS011;7429;52.498;13.480;2024-02-23T05:01:34;3.60;;;1.80;;
14681;SDS011;7429;52.498;13.480;2024-02-23T05:04:39;2.40;;;2.27;;
14681;SDS011;7429;52.498;13.480;2024-02-23T05:07:43;2.47;;;2.27;;
14681;SDS011;7429;52.498;13.480;2024-02-23T05:10:46;2.37;;;2.20;;
14681;SDS011;7429;52.498;13.480;2024-02-23T05:13:50;2.63;;;2.23;;
14681;SDS011;7429;52.498;13.480;2024-02-23T05:16:54;4.60;;;2.17;;
14681;SDS011;7429;52.498;13.480;2024-02-23T05:20:00;2.10;;;1.90;;
14681;SDS011;7429;52.498;13.480;2024-02-23T05:23:08;5.03;;;2.10;;
14681;SDS011;7429;52.498;13.480;2024-02-23T05:26:13;2.20;;;2.10;;
14681;SDS011;7429;52.498;13.480;2024-02-23T05:29:18;2.07;;;1.97;;
14681;SDS011;7429;52.498;13.480;2024-02-23T05:32:24;2.30;;;2.20;;
14681;SDS011;7429;52.498;13.480;2024-02-23T05:35:27;2.20;;;2.10;;
14681;SDS011;7429;52.498;13.480;2024-02-23T05:38:31;2.00;;;1.90;;
14681;SDS011;7429;52.498;13.480;2024-02-23T05:41:34;2.20;;;1.70;;
14681;SDS011;7429;52.498;13.480;2024-02-23T05:44:40;1.80;;;1.70;;
14681;SDS011;7429;52.498;13.480;2024-02-23T05:47:46;2.03;;;2.00;;
14681;SDS011;7429;52.498;13.480;2024-02-23T05:50:52;2.10;;;2.00;;
14681;SDS011;7429;52.498;13.480;2024-02-23T05:53:56;2.00;;;1.90;;
14681;SDS011;7429;52.498;13.480;2024-02-23T05:57:00;2.80;;;2.10;;
14681;SDS011;7429;52.498;13.480;2024-02-23T06:00:06;2.07;;;1.97;;
14681;SDS011;7429;52.498;13.480;2024-02-23T06:03:14;2.10;;;2.00;;
14681;SDS011;7429;52.498;13.480;2024-02-23T06:06:18;2.07;;;2.07;;
14681;SDS011;7429;52.498;13.480;2024-02-23T06:09:23;2.47;;;2.37;;
14681;SDS011;7429;52.498;13.480;2024-02-23T06:12:26;2.47;;;2.37;;
14681;SDS011;7429;52.498;13.480;2024-02-23T06:15:30;2.50;;;2.37;;
14681;SDS011;7429;52.498;13.480;2024-02-23T06:18:33;2.33;;;2.23;;
14681;SDS011;7429;52.498;13.480;2024-02-23T06:21:37;2.63;;;2.53;;
14681;SDS011;7429;52.498;13.480;2024-02-23T06:24:40;2.20;;;2.10;;
14681;SDS011;7429;52.498;13.480;2024-02-23T06:27:43;2.40;;;2.30;;
14681;SDS011;7429;52.498;13.480;2024-02-23T06:30:48;2.83;;;2.63;;
14681;SDS011;7429;52.498;13.480;2024-02-23T06:33:51;2.23;;;2.13;;
14681;SDS011;7429;52.498;13.480;2024-02-23T06:36:54;2.53;;;2.43;;
14681;SDS011;7429;52.498;13.480;2024-02-23T06:39:58;2.07;;;1.97;;
14681;SDS011;7429;52.498;13.480;2024-02-23T06:43:05;2.40;;;2.03;;
14681;SDS011;7429;52.498;13.480;2024-02-23T06:46:10;2.30;;;2.20;;
14681;SDS011;7429;52.498;13.480;2024-02-23T06:49:14;3.10;;;2.60;;
14681;SDS011;7429;52.498;13.480;2024-02-23T06:52:17;2.37;;;2.07;;
14681;SDS011;7429;52.498;13.480;2024-02-23T06:55:23;2.27;;;2.17;;
14681;SDS011;7429;52.498;13.480;2024-02-23T06:58:28;2.27;;;2.17;;
14681;SDS011;7429;52.498;13.480;2024-02-23T07:01:33;2.10;;;2.00;;
14681;SDS011;7429;52.498;13.480;2024-02-23T07:04:41;2.20;;;2.10;;
14681;SDS011;7429;52.498;13.480;2024-02-23T07:07:45;2.40;;;2.20;;
14681;SDS011;7429;52.498;13.480;2024-02-23T07:10:48;2.43;;;2.00;;
14681;SDS011;7429;52.498;13.480;2024-02-23T07:13:51;2.50;;;2.30;;
14681;SDS011;7429;52.498;13.480;2024-02-23T07:16:55;2.20;;;2.03;;
14681;SDS011;7429;52.498;13.480;2024-02-23T07:19:59;2.50;;;2.30;;
14681;SDS011;7429;52.498;13.480;2024-02-23T07:23:07;2.30;;;2.20;;
14681;SDS011;7429;52.498;13.480;2024-02-23T07:26:11;2.83;;;2.20;;
14681;SDS011;7429;52.498;13.480;2024-02-23T07:29:14;2.77;;;2.67;;
14681;SDS011;7429;52.498;13.480;2024-02-23T07:32:20;2.60;;;2.50;;
14681;SDS011;7429;52.498;13.480;2024-02-23T07:35:25;2.77;;;2.57;;
14681;SDS011;7429;52.498;13.480;2024-02-23T07:38:28;2.37;;;2.27;;
14681;SDS011;7429;52.498;13.480;2024-02-23T07:41:32;2.57;;;2.47;;
14681;SDS011;7429;52.498;13.480;2024-02-23T07:44:35;2.47;;;2.37;;
14681;SDS011;7429;52.498;13.480;2024-02-23T07:47:40;2.20;;;2.10;;
14681;SDS011;7429;52.498;13.480;2024-02-23T07:50:43;2.50;;;2.40;;
14681;SDS011;7429;52.498;13.480;2024-02-23T07:53:47;2.43;;;2.33;;
14681;SDS011;7429;52.498;13.480;2024-02-23T07:56:50;2.13;;;2.03;;
14681;SDS011;7429;52.498;13.480;2024-02-23T07:59:54;1.93;;;1.93;;
14681;SDS011;7429;52.498;13.480;2024-02-23T08:02:58;2.57;;;2.23;;
14681;SDS011;7429;52.498;13.480;2024-02-23T08:06:02;2.50;;;2.40;;
14681;SDS011;7429;52.498;13.480;2024-02-23T08:09:06;1.93;;;1.90;;
14681;SDS011;7429;52.498;13.480;2024-02-23T08:12:09;2.63;;;2.53;;
14681;SDS011;7429;52.498;13.480;2024-02-23T08:15:15;2.60;;;2.47;;
14681;SDS011;7429;52.498;13.480;2024-02-23T08:18:20;2.43;;;2.33;;
14681;SDS011;7429;52.498;13.480;2024-02-23T08:21:25;2.43;;;2.33;;
14681;SDS011;7429;52.498;13.480;2024-02-23T08:24:29;2.33;;;2.17;;
14681;SDS011;7429;52.498;13.480;2024-02-23T08:27:32;2.10;;;2.00;;
14681;SDS011;7429;52.498;13.480;2024-02-23T08:30:35;2.13;;;2.03;;
14681;SDS011;7429;52.498;13.480;2024-02-23T08:33:40;2.10;;;2.00;;
14681;SDS011;7429;52.498;13.480;2024-02-23T08:36:43;2.93;;;2.33;;
14681;SDS011;7429;52.498;13.480;2024-02-23T08:39:46;2.27;;;2.10;;
14681;SDS011;7429;52.498;13.480;2024-02-23T08:42:50;2.60;;;1.93;;
14681;SDS011;7429;52.498;13.480;2024-02-23T08:45:53;3.13;;;2.13;;
14681;SDS011;7429;52.498;13.480;2024-02-23T08:48:59;3.47;;;2.50;;
14681;SDS011;7429;52.498;13.480;2024-02-23T08:52:05;2.30;;;2.10;;
14681;SDS011;7429;52.498;13.480;2024-02-23T08:55:08;2.07;;;1.97;;
14681;SDS011;7429;52.498;13.480;2024-02-23T08:58:12;2.60;;;2.40;;
14681;SDS011;7429;52.498;13.480;2024-02-23T09:01:18;2.30;;;2.20;;
14681;SDS011;7429;52.498;13.480;2024-02-23T09:04:23;2.50;;;2.30;;
14681;SDS011;7429;52.498;13.480;2024-02-23T09:07:26;2.30;;;2.20;;
14681;SDS011;7429;52.498;13.480;2024-02-23T09:10:30;1.87;;;1.77;;
14681;SDS011;7429;52.498;13.480;2024-02-23T09:13:33;2.20;;;2.10;;
14681;SDS011;7429;52.498;13.480;2024-02-23T09:16:36;2.43;;;2.33;;
14681;SDS011;7429;52.498;13.480;2024-02-23T09:19:41;2.13;;;2.03;;
14681;SDS011;7429;52.498;13.480;2024-02-23T09:22:44;2.33;;;2.17;;
14681;SDS011;7429;52.498;13.480;2024-02-23T09:25:48;2.10;;;2.00;;
14681;SDS011;7429;52.498;13.480;2024-02-23T09:28:54;1.97;;;1.87;;
14681;SDS011;7429;52.498;13.480;2024-02-23T09:31:58;2.17;;;2.07;;
14681;SDS011;7429;52.498;13.480;2024-02-23T09:35:03;2.00;;;1.90;;
14681;SDS011;7429;52.498;13.480;2024-02-23T09:38:08;2.23;;;2.07;;
14681;SDS011;7429;52.498;13.480;2024-02-23T09:41:15;2.70;;;2.07;;
14681;SDS011;7429;52.498;13.480;2024-02-23T09:44:23;2.83;;;1.87;;
14681;SDS011;7429;52.498;13.480;2024-02-23T09:47:29;3.27;;;2.50;;
14681;SDS011;7429;52.498;13.480;2024-02-23T09:50:35;5.13;;;2.07;;
14681;SDS011;7429;52.498;13.480;2024-02-23T09:53:40;2.20;;;2.10;;
14681;SDS011;7429;52.498;13.480;2024-02-23T09:56:44;2.23;;;2.13;;
14681;SDS011;7429;52.498;13.480;2024-02-23T09:59:48;2.20;;;2.10;;
14681;SDS011;7429;52.498;13.480;2024-02-23T10:02:51;2.43;;;2.23;;
14681;SDS011;7429;52.498;13.480;2024-02-23T10:05:58;2.13;;;2.13;;
14681;SDS011;7429;52.498;13.480;2024-02-23T10:09:03;3.00;;;2.13;;
14681;SDS011;7429;52.498;13.480;2024-02-23T10:12:07;2.37;;;2.27;;
14681;SDS011;7429;52.498;13.480;2024-02-23T10:15:11;2.13;;;2.00;;
14681;SDS011;7429;52.498;13.480;2024-02-23T10:18:14;3.80;;;2.00;;
14681;SDS011;7429;52.498;13.480;2024-02-23T10:21:19;1.80;;;1.70;;
14681;SDS011;7429;52.498;13.480;2024-02-23T10:24:22;3.23;;;2.00;;
14681;SDS011;7429;52.498;13.480;2024-02-23T10:27:26;2.20;;;2.10;;
14681;SDS011;7429;52.498;13.480;2024-02-23T10:30:30;1.80;;;1.70;;
14681;SDS011;7429;52.498;13.480;2024-02-23T10:33:35;2.50;;;2.27;;
14681;SDS011;7429;52.498;13.480;2024-02-23T10:36:42;2.27;;;2.07;;
14681;SDS011;7429;52.498;13.480;2024-02-23T10:39:46;1.93;;;1.83;;
14681;SDS011;7429;52.498;13.480;2024-02-23T10:42:54;2.07;;;1.83;;
14681;SDS011;7429;52.498;13.480;2024-02-23T10:46:00;2.00;;;1.80;;
14681;SDS011;7429;52.498;13.480;2024-02-23T10:49:09;2.03;;;1.93;;
14681;SDS011;7429;52.498;13.480;2024-02-23T10:52:16;3.43;;;1.83;;
14681;SDS011;7429;52.498;13.480;2024-02-23T10:55:20;2.07;;;1.97;;
14681;SDS011;7429;52.498;13.480;2024-02-23T10:58:25;3.23;;;1.97;;
14681;SDS011;7429;52.498;13.480;2024-02-23T11:01:30;2.03;;;1.93;;
14681;SDS011;7429;52.498;13.480;2024-02-23T11:04:40;3.50;;;1.83;;
14681;SDS011;7429;52.498;13.480;2024-02-23T11:07:47;2.93;;;2.33;;
14681;SDS011;7429;52.498;13.480;2024-02-23T11:10:52;2.47;;;2.00;;
14681;SDS011;7429;52.498;13.480;2024-02-23T11:13:55;2.07;;;1.97;;
14681;SDS011;7429;52.498;13.480;2024-02-23T11:17:00;2.83;;;2.10;;
14681;SDS011;7429;52.498;13.480;2024-02-23T11:20:04;4.93;;;2.10;;
14681;SDS011;7429;52.498;13.480;2024-02-23T11:23:14;1.80;;;1.70;;
14681;SDS011;7429;52.498;13.480;2024-02-23T11:26:22;2.17;;;1.80;;
14681;SDS011;7429;52.498;13.480;2024-02-23T11:29:28;2.80;;;2.10;;
14681;SDS011;7429;52.498;13.480;2024-02-23T11:32:37;2.50;;;1.97;;
14681;SDS011;7429;52.498;13.480;2024-02-23T11:35:45;2.23;;;2.00;;
14681;SDS011;7429;52.498;13.480;2024-02-23T11:38:56;2.93;;;2.40;;
14681;SDS011;7429;52.498;13.480;2024-02-23T11:42:03;4.20;;;1.97;;
14681;SDS011;7429;52.498;13.480;2024-02-23T11:45:08;3.57;;;2.00;;
14681;SDS011;7429;52.498;13.480;2024-02-23T11:48:11;3.13;;;2.00;;
14681;SDS011;7429;52.498;13.480;2024-02-23T11:51:16;5.07;;;2.27;;
14681;SDS011;7429;52.498;13.480;2024-02-23T11:54:22;3.07;;;1.93;;
14681;SDS011;7429;52.498;13.480;2024-02-23T11:57:26;2.47;;;2.17;;
14681;SDS011;7429;52.498;13.480;2024-02-23T12:00:46;2.40;;;2.00;;
14681;SDS011;7429;52.498;13.480;2024-02-23T12:03:49;2.60;;;2.30;;
14681;SDS011;7429;52.498;13.480;2024-02-23T12:06:52;5.30;;;2.00;;
14681;SDS011;7429;52.498;13.480;2024-02-23T12:09:57;2.27;;;2.00;;
14681;SDS011;7429;52.498;13.480;2024-02-23T12:13:01;2.90;;;2.20;;
14681;SDS011;7429;52.498;13.480;2024-02-23T12:16:06;2.27;;;1.80;;
14681;SDS011;7429;52.498;13.480;2024-02-23T12:19:10;2.37;;;1.70;;
14681;SDS011;7429;52.498;13.480;2024-02-23T12:22:14;2.10;;;2.00;;
14681;SDS011;7429;52.498;13.480;2024-02-23T12:25:18;1.90;;;1.80;;
14681;SDS011;7429;52.498;13.480;2024-02-23T12:28:22;2.00;;;1.90;;
14681;SDS011;7429;52.498;13.480;2024-02-23T12:31:25;3.13;;;2.20;;
14681;SDS011;7429;52.498;13.480;2024-02-23T12:34:29;2.30;;;2.20;;
14681;SDS011;7429;52.498;13.480;2024-02-23T12:37:34;2.23;;;1.93;;
14681;SDS011;7429;52.498;13.480;2024-02-23T12:40:41;2.23;;;2.00;;
14681;SDS011;7429;52.498;13.480;2024-02-23T12:43:44;2.90;;;2.70;;
14681;SDS011;7429;52.498;13.480;2024-02-23T12:46:49;2.00;;;1.87;;
14681;SDS011;7429;52.498;13.480;2024-02-23T12:49:52;2.37;;;2.20;;
14681;SDS011;7429;52.498;13.480;2024-02-23T12:52:55;1.97;;;1.87;;
14681;SDS011;7429;52.498;13.480;2024-02-23T12:56:00;5.20;;;2.50;;
14681;SDS011;7429;52.498;13.480;2024-02-23T12:59:04;1.60;;;1.50;;
14681;SDS011;7429;52.498;13.480;2024-02-23T13:02:08;2.17;;;2.07;;
14681;SDS011;7429;52.498;13.480;2024-02-23T13:05:13;2.40;;;2.17;;
14681;SDS011;7429;52.498;13.480;2024-02-23T13:08:17;2.47;;;2.10;;
14681;SDS011;7429;52.498;13.480;2024-02-23T13:11:22;2.53;;;2.33;;
14681;SDS011;7429;52.498;13.480;2024-02-23T13:14:26;2.30;;;2.10;;
14681;SDS011;7429;52.498;13.480;2024-02-23T13:17:29;2.77;;;2.00;;
14681;SDS011;7429;52.498;13.480;2024-02-23T13:20:33;4.70;;;2.30;;
14681;SDS011;7429;52.498;13.480;2024-02-23T13:23:37;2.40;;;2.20;;
14681;SDS011;7429;52.498;13.480;2024-02-23T13:26:42;4.23;;;2.17;;
14681;SDS011;7429;52.498;13.480;2024-02-23T13:29:45;3.93;;;2.40;;
14681;SDS011;7429;52.498;13.480;2024-02-23T13:32:49;1.97;;;1.87;;
14681;SDS011;7429;52.498;13.480;2024-02-23T13:35:52;3.43;;;2.00;;
14681;SDS011;7429;52.498;13.480;2024-02-23T13:38:56;2.27;;;2.10;;
14681;SDS011;7429;52.498;13.480;2024-02-23T13:42:03;4.20;;;2.33;;
14681;SDS011;7429;52.498;13.480;2024-02-23T13:45:10;3.07;;;2.23;;
14681;SDS011;7429;52.498;13.480;2024-02-23T13:48:15;2.50;;;2.20;;
14681;SDS011;7429;52.498;13.480;2024-02-23T13:51:20;3.40;;;2.10;;
14681;SDS011;7429;52.498;13.480;2024-02-23T13:54:23;2.40;;;2.20;;
14681;SDS011;7429;52.498;13.480;2024-02-23T13:57:29;2.93;;;2.20;;
14681;SDS011;7429;52.498;13.480;2024-02-23T14:00:33;4.50;;;2.30;;
14681;SDS011;7429;52.498;13.480;2024-02-23T14:03:36;5.60;;;2.20;;
14681;SDS011;7429;52.498;13.480;2024-02-23T14:06:39;2.33;;;2.10;;
14681;SDS011;7429;52.498;13.480;2024-02-23T14:09:43;4.87;;;2.03;;
14681;SDS011;7429;52.498;13.480;2024-02-23T14:12:47;2.10;;;1.93;;
14681;SDS011;7429;52.498;13.480;2024-02-23T14:15:52;2.30;;;2.20;;
14681;SDS011;7429;52.498;13.480;2024-02-23T14:18:55;2.37;;;2.13;;
14681;SDS011;7429;52.498;13.480;2024-02-23T14:21:58;2.07;;;1.90;;
14681;SDS011;7429;52.498;13.480;2024-02-23T14:25:02;2.63;;;2.40;;
14681;SDS011;7429;52.498;13.480;2024-02-23T14:28:07;3.33;;;2.20;;
14681;SDS011;7429;52.498;13.480;2024-02-23T14:31:11;2.07;;;1.93;;
14681;SDS011;7429;52.498;13.480;2024-02-23T14:34:14;2.40;;;2.20;;
14681;SDS011;7429;52.498;13.480;2024-02-23T14:37:18;2.70;;;2.10;;
14681;SDS011;7429;52.498;13.480;2024-02-23T14:40:22;4.33;;;2.30;;
14681;SDS011;7429;52.498;13.480;2024-02-23T14:43:26;4.63;;;1.90;;
14681;SDS011;7429;52.498;13.480;2024-02-23T14:46:32;2.20;;;2.00;;
14681;SDS011;7429;52.498;13.480;2024-02-23T14:49:36;3.03;;;2.23;;
14681;SDS011;7429;52.498;13.480;2024-02-23T14:52:39;3.93;;;2.07;;
14681;SDS011;7429;52.498;13.480;2024-02-23T14:55:46;2.30;;;2.10;;
14681;SDS011;7429;52.498;13.480;2024-02-23T14:58:51;2.83;;;2.40;;
14681;SDS011;7429;52.498;13.480;2024-02-23T15:01:54;2.73;;;2.53;;
14681;SDS011;7429;52.498;13.480;2024-02-23T15:04:57;2.37;;;2.20;;
14681;SDS011;7429;52.498;13.480;2024-02-23T15:08:01;2.33;;;2.13;;
14681;SDS011;7429;52.498;13.480;2024-02-23T15:11:04;2.33;;;2.23;;
14681;SDS011;7429;52.498;13.480;2024-02-23T15:14:09;3.20;;;2.40;;
14681;SDS011;7429;52.498;13.480;2024-02-23T15:17:12;3.90;;;2.57;;
14681;SDS011;7429;52.498;13.480;2024-02-23T15:20:15;3.30;;;3.00;;
14681;SDS011;7429;52.498;13.480;2024-02-23T15:23:19;3.13;;;2.67;;
14681;SDS011;7429;52.498;13.480;2024-02-23T15:26:25;5.83;;;2.33;;
14681;SDS011;7429;52.498;13.480;2024-02-23T15:29:29;5.90;;;2.80;;
14681;SDS011;7429;52.498;13.480;2024-02-23T15:32:33;2.93;;;2.73;;
14681;SDS011;7429;52.498;13.480;2024-02-23T15:35:37;3.50;;;2.93;;
14681;SDS011;7429;52.498;13.480;2024-02-23T15:38:41;2.87;;;2.30;;
14681;SDS011;7429;52.498;13.480;2024-02-23T15:41:44;2.93;;;2.60;;
14681;SDS011;7429;52.498;13.480;2024-02-23T15:44:49;4.33;;;3.03;;
14681;SDS011;7429;52.498;13.480;2024-02-23T15:47:52;4.83;;;3.10;;
14681;SDS011;7429;52.498;13.480;2024-02-23T15:50:56;7.03;;;4.17;;
14681;SDS011;7429;52.498;13.480;2024-02-23T15:54:19;4.07;;;2.50;;
14681;SDS011;7429;52.498;13.480;2024-02-23T15:57:22;3.67;;;2.60;;
14681;SDS011;7429;52.498;13.480;2024-02-23T16:00:27;3.10;;;2.70;;
14681;SDS011;7429;52.498;13.480;2024-02-23T16:03:31;3.90;;;2.50;;
14681;SDS011;7429;52.498;13.480;2024-02-23T16:06:35;2.60;;;2.40;;
14681;SDS011;7429;52.498;13.480;2024-02-23T16:09:39;5.43;;;3.80;;
14681;SDS011;7429;52.498;13.480;2024-02-23T16:12:43;6.27;;;2.70;;
14681;SDS011;7429;52.498;13.480;2024-02-23T16:15:54;3.27;;;2.97;;
14681;SDS011;7429;52.498;13.480;2024-02-23T16:18:58;6.07;;;3.37;;
14681;SDS011;7429;52.498;13.480;2024-02-23T16:22:01;5.00;;;2.90;;
14681;SDS011;7429;52.498;13.480;2024-02-23T16:25:07;2.87;;;2.67;;
14681;SDS011;7429;52.498;13.480;2024-02-23T16:28:11;3.60;;;3.30;;
14681;SDS011;7429;52.498;13.480;2024-02-23T16:31:16;4.17;;;3.03;;
14681;SDS011;7429;52.498;13.480;2024-02-23T16:34:19;3.37;;;3.07;;
14681;SDS011;7429;52.498;13.480;2024-02-23T16:37:22;3.87;;;2.87;;
14681;SDS011;7429;52.498;13.480;2024-02-23T16:40:26;3.60;;;2.80;;
14681;SDS011;7429;52.498;13.480;2024-02-23T16:43:31;3.70;;;3.40;;
14681;SDS011;7429;52.498;13.480;2024-02-23T16:46:36;5.13;;;2.90;;
14681;SDS011;7429;52.498;13.480;2024-02-23T16:49:40;5.90;;;3.63;;
14681;SDS011;7429;52.498;13.480;2024-02-23T16:52:43;4.93;;;4.60;;
14681;SDS011;7429;52.498;13.480;2024-02-23T16:55:47;8.17;;;5.17;;
14681;SDS011;7429;52.498;13.480;2024-02-23T16:58:50;6.07;;;4.93;;
14681;SDS011;7429;52.498;13.480;2024-02-23T17:01:56;9.87;;;8.27;;
14681;SDS011;7429;52.498;13.480;2024-02-23T17:04:59;10.53;;;7.00;;
14681;SDS011;7429;52.498;13.480;2024-02-23T17:08:03;4.60;;;4.17;;
14681;SDS011;7429;52.498;13.480;2024-02-23T17:11:12;4.27;;;3.53;;
14681;SDS011;7429;52.498;13.480;2024-02-23T17:14:15;4.17;;;3.77;;
14681;SDS011;7429;52.498;13.480;2024-02-23T17:17:20;3.67;;;3.37;;
14681;SDS011;7429;52.498;13.480;2024-02-23T17:20:24;7.20;;;3.47;;
14681;SDS011;7429;52.498;13.480;2024-02-23T17:23:28;4.13;;;2.73;;
14681;SDS011;7429;52.498;13.480;2024-02-23T17:26:31;8.47;;;3.30;;
14681;SDS011;7429;52.498;13.480;2024-02-23T17:29:35;4.40;;;3.50;;
14681;SDS011;7429;52.498;13.480;2024-02-23T17:32:39;3.93;;;3.40;;
14681;SDS011;7429;52.498;13.480;2024-02-23T17:35:43;6.23;;;3.57;;
14681;SDS011;7429;52.498;13.480;2024-02-23T17:38:46;3.73;;;3.40;;
14681;SDS011;7429;52.498;13.480;2024-02-23T17:41:51;3.87;;;2.93;;
14681;SDS011;7429;52.498;13.480;2024-02-23T17:44:54;4.33;;;3.50;;
14681;SDS011;7429;52.498;13.480;2024-02-23T17:47:59;5.07;;;2.80;;
14681;SDS011;7429;52.498;13.480;2024-02-23T17:51:03;4.23;;;3.83;;
14681;SDS011;7429;52.498;13.480;2024-02-23T17:54:07;6.07;;;3.63;;
14681;SDS011;7429;52.498;13.480;2024-02-23T17:57:13;6.87;;;4.30;;
14681;SDS011;7429;52.498;13.480;2024-02-23T18:00:16;5.93;;;3.80;;
14681;SDS011;7429;52.498;13.480;2024-02-23T18:03:22;8.57;;;3.93;;
14681;SDS011;7429;52.498;13.480;2024-02-23T18:06:25;5.40;;;3.80;;
14681;SDS011;7429;52.498;13.480;2024-02-23T18:09:28;7.53;;;4.80;;
14681;SDS011;7429;52.498;13.480;2024-02-23T18:12:32;6.73;;;4.77;;
14681;SDS011;7429;52.498;13.480;2024-02-23T18:15:36;7.77;;;5.37;;
14681;SDS011;7429;52.498;13.480;2024-02-23T18:18:41;9.30;;;4.40;;
14681;SDS011;7429;52.498;13.480;2024-02-23T18:21:44;5.50;;;4.10;;
14681;SDS011;7429;52.498;13.480;2024-02-23T18:24:47;5.50;;;4.80;;
14681;SDS011;7429;52.498;13.480;2024-02-23T18:27:50;6.17;;;4.90;;
14681;SDS011;7429;52.498;13.480;2024-02-23T18:30:53;8.93;;;4.77;;
14681;SDS011;7429;52.498;13.480;2024-02-23T18:33:58;8.03;;;5.77;;
14681;SDS011;7429;52.498;13.480;2024-02-23T18:37:02;10.90;;;6.40;;